createdAt,value
2022-10-10T00:08:19.542Z,100
2022-10-10T00:27:32.808Z,100
2022-10-10T00:46:46.712Z,100
2022-10-10T01:06:00.706Z,100
2022-10-10T01:25:14.831Z,100
2022-10-10T01:34:51.936Z,100
2022-10-10T01:44:29.246Z,100
2022-10-10T02:03:43.852Z,100
2022-10-10T02:22:58.187Z,100
2022-10-10T02:42:12.191Z,100
2022-10-10T03:01:25.623Z,100
2022-10-10T03:20:38.784Z,100
2022-10-10T03:39:51.707Z,100
2022-10-10T03:59:05.442Z,100
2022-10-10T04:18:19.625Z,100
2022-10-10T04:37:33.563Z,100
2022-10-10T04:56:47.136Z,100
2022-10-10T05:16:01.109Z,100
2022-10-10T05:35:14.030Z,100
2022-10-10T05:54:28.083Z,100
2022-10-10T06:13:42.236Z,100
2022-10-10T06:23:18.839Z,100
2022-10-10T06:32:57.147Z,100
2022-10-10T06:52:13.179Z,100
2022-10-10T07:11:30.010Z,97.58
2022-10-10T07:30:44.912Z,94.86
2022-10-10T07:40:21.863Z,91.88
2022-10-10T07:49:59.656Z,86.9
2022-10-10T08:09:15.281Z,81.58
2022-10-10T08:28:31.453Z,76.74
2022-10-10T08:47:47.985Z,73.64
2022-10-10T09:07:04.324Z,70.45
2022-10-10T09:26:19.952Z,69.24
2022-10-10T09:45:36.006Z,66.94
2022-10-10T10:04:52.693Z,65.29
2022-10-10T10:24:09.462Z,60.12
2022-10-10T10:44:19.930Z,51.98
2022-10-10T11:04:15.901Z,48
2022-10-10T11:23:09.162Z,46.68
2022-10-10T11:42:26.750Z,44.74
2022-10-10T12:01:41.508Z,44.38
2022-10-10T12:21:02.126Z,44.64
2022-10-10T12:30:40.333Z,45.09
2022-10-10T12:40:19.778Z,42.97
2022-10-10T12:59:36.133Z,43.57
2022-10-10T13:18:53.388Z,40.6
2022-10-10T13:38:05.303Z,40.86
2022-10-10T13:57:18.891Z,40.53
2022-10-10T14:16:35.319Z,41.13
2022-10-10T14:35:54.131Z,41.17
2022-10-10T14:54:53.156Z,44.88
2022-10-10T15:13:51.229Z,49.97
2022-10-10T15:32:54.625Z,56.15
2022-10-10T15:52:05.005Z,60.49
2022-10-10T16:11:16.400Z,65.28
2022-10-10T16:30:27.809Z,74.99
2022-10-10T16:40:03.448Z,78.56
2022-10-10T16:49:39.105Z,81.29
2022-10-10T17:08:52.026Z,86.22
2022-10-10T17:28:04.244Z,89.54
2022-10-10T17:37:40.486Z,91.79
2022-10-10T17:47:17.157Z,92.4
2022-10-10T18:06:30.703Z,94.37
2022-10-10T18:25:43.265Z,97.62
2022-10-10T18:35:20.053Z,99.13
2022-10-10T18:44:56.747Z,99.09
2022-10-10T19:04:10.552Z,99.75
2022-10-10T19:13:47.009Z,99.06
2022-10-10T19:23:23.834Z,99.31
2022-10-10T19:42:37.717Z,99.18
2022-10-10T19:52:14.599Z,99.85
2022-10-10T20:01:53.113Z,100
2022-10-10T20:21:05.096Z,100
2022-10-10T20:40:18.897Z,100
2022-10-10T20:59:32.737Z,100
2022-10-10T21:18:56.856Z,100
2022-10-10T21:38:02.394Z,99.81
2022-10-10T21:57:16.806Z,96.86
2022-10-10T22:16:31.302Z,97.47
2022-10-10T22:35:45.863Z,97.21
2022-10-10T22:45:22.630Z,97.75
2022-10-10T22:54:59.780Z,97.91
2022-10-10T23:14:13.878Z,98.45
2022-10-10T23:33:30.410Z,98.29
2022-10-10T23:52:42.663Z,97.73
